Csk Radiance — VRXB4 — position and weather

sailwx.info

Track history (hours):
 
Tides and Currents Weather Stations Pressure Air Temp Water Temp Dewpoint Dewpoint Depression Visibility Wind Speed Wind Dir Waves Ship Positions

Csk Radiance

Last reported at 2015-Aug-15 01:16 UTC. Time now 2015-Aug-30 22:36 UTC.
Position S 18°40' E 119°06'.
Warning: this ship's position is 15 days out of date.

Length 289 m; draft 17.6 m.

Type: Cargo ship. MMSI: 477918000.

Date/timePositionNaut miles runAvg speedWind from/ knotsBaromVisibWave heightAir tempDewpointWater temp
2015-Aug-15 01:16S 18°40' E 119°06'811.3
2015-Aug-15 00:33S 18°48' E 119°02'1110.8
2015-Aug-14 23:33S 18°58' E 118°58'1211.2
2015-Aug-14 22:31S 19°08' E 118°52'1111.5
2015-Aug-14 21:32S 19°18' E 118°47'1211.7
2015-Aug-14 20:28S 19°29' E 118°41'1111.7
2015-Aug-14 19:31S 19°39' E 118°36'1311.9
2015-Aug-14 18:25S 19°51' E 118°30'1311.7
2015-Aug-14 17:16S 20°04' E 118°25'811.1
2015-Aug-14 16:32S 20°10' E 118°30'8 8.1
2015-Aug-14 15:33S 20°17' E 118°35'2 0.1
2015-Aug-13 12:21S 20°19' E 118°34'0 0.0
2015-Aug-13 09:27S 20°19' E 118°34'  
Track history (hours):
 
Tides and Currents Weather Stations Pressure Air Temp Water Temp Dewpoint Dewpoint Depression Visibility Wind Speed Wind Dir Waves Ship Positions

Csk Radiance

Last reported at 2015-Aug-15 01:16 UTC. Time now 2015-Aug-30 22:36 UTC.
Position S 18°40' E 119°06'.
Warning: this ship's position is 15 days out of date.

Length 289 m; draft 17.6 m.

Type: Cargo ship. MMSI: 477918000.

Date/timePositionNaut miles runAvg speedWind from/ knotsBaromVisibWave heightAir tempDewpointWater temp
2015-Aug-15 01:16S 18°40' E 119°06'811.3
2015-Aug-15 00:33S 18°48' E 119°02'1110.8
2015-Aug-14 23:33S 18°58' E 118°58'1211.2
2015-Aug-14 22:31S 19°08' E 118°52'1111.5
2015-Aug-14 21:32S 19°18' E 118°47'1211.7
2015-Aug-14 20:28S 19°29' E 118°41'1111.7
2015-Aug-14 19:31S 19°39' E 118°36'1311.9
2015-Aug-14 18:25S 19°51' E 118°30'1311.7
2015-Aug-14 17:16S 20°04' E 118°25'811.1
2015-Aug-14 16:32S 20°10' E 118°30'8 8.1
2015-Aug-14 15:33S 20°17' E 118°35'2 0.1
2015-Aug-13 12:21S 20°19' E 118°34'0 0.0
2015-Aug-13 09:27S 20°19' E 118°34'  

Dump ship's entire track history